Arapahoe, CO

2:30 PM MDT on July 24, 2014 (GMT -0600)
KWS (KCOCHEYE2) Elev 4252 ft | 38.82 °N, 102.33 °W | Change Station
Active Advisory: Special Statement

Current weather conditions updated 4 seconds ago

Clear
Clear
98.7 °F
Feels Like 94 °F
N
13.0
Wind Variable Wind from South
Gusts 15.0 mph

Today is forecast to be Much Warmer than yesterday.

Today
High -- | Low -- °F
--% Chance of Precip.
Yesterday
High -- | Low -- °F
Precip. -- in
5:42 AM 8:07 PM
Waning Crescent, 4% visible
Pressure 29.80 in
Visibility 10.0 miles
Clouds Clear
Heat Index 94 °F
Dew Point 37 °F
Humidity 12%
Rainfall 0.00 in
Snow Depth Not available.
UV 12 out of 12
Pollen 7.30 out of 12
Air Quality Not available.
Flu Activity Not available.
METAR KITR 241953Z AUTO 20019G24KT 10SM CLR 37/04 A3001 RMK AO2 PK WND 18029/1903 SLP090 T03720044

More Conditions Fewer Conditions

Pressure 29.80 in
Visibility 10.0 miles
Clouds Clear
Heat Index 94 °F
Dew Point 37 °F
Humidity 12%
Rainfall 0.00 in
Snow Depth Not available.
UV 12 out of 12
Pollen 7.30 out of 12
Air Quality Not available.
Flu Activity Not available.
METAR KITR 241953Z AUTO 20019G24KT 10SM CLR 37/04 A3001 RMK AO2 PK WND 18029/1903 SLP090 T03720044

More Conditions Fewer Conditions

10-Day Weather Forecast

Almanac

Astronomy

Jul. 24, 2014 Rise Set
Actual Time 5:42 AM MDT 8:07 PM MDT
Civil Twilight 5:12 AM MDT 8:37 PM MDT
Nautical Twilight 4:34 AM MDT 9:15 PM MDT
Astronomical Twilight 3:53 AM MDT 9:56 PM MDT
Moon 3:52 AM MDT 6:24 PM MDT
Length of Visible Light 15h 25m
Length of Day
14h 24m
Tomorrow will be 1m 39s shorter.
Waning Crescent, 4% of the Moon is Illuminated
Today
Waning Crescent
Jul 26
New
Aug 3
First Quarter
Aug 10
Full
Aug 17
Last Quarter

Today's Extremes

State Highs State Lows

Community

WunderPhotos

Upload Photos

1,737,123 photos uploaded!

Nearby

Snow Depth

Station Depth Elevation
Ute Creek 0 in 10650 ft
Niwot 0 in 9910 ft
Trinchera 0 in 10860 ft
Grizzly Peak 4 in 11100 ft
Lake Irene 1 in 10700 ft

Earthquake Activity

City Distance Mag. Time & Date
No recent earthquake activity has been reported nearby.
Minimum magnitude displayed is 2.5.

Coastal Water Temperatures

Place Temperature
No Stations Reporting

Nearby Weather Stations

Station Location Temp. Heat Index Dew Point Humidity Wind Precip. Elev Updated Type
MesoWest ARAPHO , Arapahoe, CO 90 °F 87 °F - - North  at  - 0.00 in / hr 3991 ft 10:45 AM MDT MADIS
KWS, Cheyenne Wells, CO 98.7 °F 94 °F 37 °F 12% South  at  13.0 mph 0.00 in / hr 4252 ft 2:30 PM MDT Normal
DW8525, Cheyenne Wells, CO 98.6 °F 94 °F 38 °F 13% South  at  9.8 mph 0.00 in / hr 4295 ft 2:30 PM MDT Rapid Fire
4M Feeders, Stratton, CO 96.8 °F 92 °F 42 °F 15% SW  at  0.0 mph 0.00 in / hr 4531 ft 2:30 PM MDT Normal

Show More Stations Show Fewer Stations